sensor_id;sensor_type;location;lat;lon;timestamp;pressure;altitude;pressure_sealevel;temperature;humidity
72585;BME280;60618;40.084;32.908;2023-04-20T00:00:34;88841.59;;;9.49;78.06
72585;BME280;60618;40.084;32.908;2023-04-20T00:03:01;88838.47;;;9.67;76.77
72585;BME280;60618;40.084;32.908;2023-04-20T00:05:28;88836.56;;;9.85;75.21
72585;BME280;60618;40.084;32.908;2023-04-20T00:07:55;88837.78;;;10.01;75.02
72585;BME280;60618;40.084;32.908;2023-04-20T00:10:22;88825.47;;;9.98;75.06
72585;BME280;60618;40.084;32.908;2023-04-20T00:12:50;88832.25;;;9.99;74.15
72585;BME280;60618;40.084;32.908;2023-04-20T00:15:18;88833.63;;;9.49;75.66
72585;BME280;60618;40.084;32.908;2023-04-20T00:17:45;88830.69;;;9.36;76.10
72585;BME280;60618;40.084;32.908;2023-04-20T00:20:12;88831.69;;;9.61;75.19
72585;BME280;60618;40.084;32.908;2023-04-20T00:22:39;88815.31;;;9.90;74.01
72585;BME280;60618;40.084;32.908;2023-04-20T00:25:06;88825.47;;;9.98;73.79
72585;BME280;60618;40.084;32.908;2023-04-20T00:27:33;88825.22;;;9.90;73.42
72585;BME280;60618;40.084;32.908;2023-04-20T00:30:03;88822.06;;;9.80;73.26
72585;BME280;60618;40.084;32.908;2023-04-20T00:32:30;88818.91;;;9.65;72.85
72585;BME280;60618;40.084;32.908;2023-04-20T00:34:57;88821.81;;;9.67;73.90
72585;BME280;60618;40.084;32.908;2023-04-20T00:37:23;88813.84;;;9.89;73.07
72585;BME280;60618;40.084;32.908;2023-04-20T00:39:51;88822.56;;;10.18;71.90
72585;BME280;60618;40.084;32.908;2023-04-20T00:42:21;88821.84;;;10.34;71.30
72585;BME280;60618;40.084;32.908;2023-04-20T00:44:48;88829.81;;;10.29;71.63
72585;BME280;60618;40.084;32.908;2023-04-20T00:47:15;88817.00;;;9.99;73.26
72585;BME280;60618;40.084;32.908;2023-04-20T00:49:42;88828.09;;;9.75;74.79
72585;BME280;60618;40.084;32.908;2023-04-20T00:52:09;88830.22;;;9.49;74.85
72585;BME280;60618;40.084;32.908;2023-04-20T00:54:36;88821.06;;;9.61;74.26
72585;BME280;60618;40.084;32.908;2023-04-20T00:57:04;88826.41;;;9.72;73.96
72585;BME280;60618;40.084;32.908;2023-04-20T00:59:31;88825.91;;;9.79;73.75
72585;BME280;60618;40.084;32.908;2023-04-20T01:01:58;88816.75;;;9.91;73.31
72585;BME280;60618;40.084;32.908;2023-04-20T01:04:25;88816.25;;;10.04;72.28
72585;BME280;60618;40.084;32.908;2023-04-20T01:06:52;88807.81;;;10.17;72.10
72585;BME280;60618;40.084;32.908;2023-04-20T01:09:19;88806.13;;;10.25;71.57
72585;BME280;60618;40.084;32.908;2023-04-20T01:11:47;88805.16;;;10.28;70.50
72585;BME280;60618;40.084;32.908;2023-04-20T01:14:13;88804.63;;;10.41;70.21
72585;BME280;60618;40.084;32.908;2023-04-20T01:16:40;88800.06;;;10.36;70.00
72585;BME280;60618;40.084;32.908;2023-04-20T01:19:07;88801.03;;;10.44;70.03
72585;BME280;60618;40.084;32.908;2023-04-20T01:21:34;88800.75;;;10.47;69.91
72585;BME280;60618;40.084;32.908;2023-04-20T01:24:01;88803.41;;;10.42;69.98
72585;BME280;60618;40.084;32.908;2023-04-20T01:26:28;88804.91;;;10.37;69.54
72585;BME280;60618;40.084;32.908;2023-04-20T01:28:56;88811.91;;;10.40;69.82
72585;BME280;60618;40.084;32.908;2023-04-20T01:31:23;88794.25;;;10.37;69.98
72585;BME280;60618;40.084;32.908;2023-04-20T01:33:50;88801.03;;;10.44;69.46
72585;BME280;60618;40.084;32.908;2023-04-20T01:36:17;88800.75;;;10.47;69.26
72585;BME280;60618;40.084;32.908;2023-04-20T01:38:44;88799.09;;;10.39;68.57
72585;BME280;60618;40.084;32.908;2023-04-20T01:41:11;88805.59;;;10.15;68.48
72585;BME280;60618;40.084;32.908;2023-04-20T01:43:38;88812.16;;;9.86;70.78
72585;BME280;60618;40.084;32.908;2023-04-20T01:46:08;88814.75;;;9.42;70.69
72585;BME280;60618;40.084;32.908;2023-04-20T01:48:34;88811.75;;;9.00;73.84
72585;BME280;60618;40.084;32.908;2023-04-20T01:51:01;88816.34;;;9.00;74.56
72585;BME280;60618;40.084;32.908;2023-04-20T01:53:28;88805.94;;;8.91;75.05
72585;BME280;60618;40.084;32.908;2023-04-20T01:55:55;88810.75;;;8.98;74.24
72585;BME280;60618;40.084;32.908;2023-04-20T01:58:22;88808.88;;;9.15;74.02
72585;BME280;60618;40.084;32.908;2023-04-20T02:00:49;88807.50;;;9.42;72.44
72585;BME280;60618;40.084;32.908;2023-04-20T02:03:16;88809.25;;;9.62;72.35
72585;BME280;60618;40.084;32.908;2023-04-20T02:05:43;88815.03;;;9.66;70.80
72585;BME280;60618;40.084;32.908;2023-04-20T02:08:10;88815.50;;;9.70;70.28
72585;BME280;60618;40.084;32.908;2023-04-20T02:10:37;88820.84;;;9.64;69.63
72585;BME280;60618;40.084;32.908;2023-04-20T02:13:04;88821.09;;;9.72;69.40
72585;BME280;60618;40.084;32.908;2023-04-20T02:15:30;88819.63;;;9.77;69.02
72585;BME280;60618;40.084;32.908;2023-04-20T02:17:57;88823.28;;;9.74;67.96
72585;BME280;60618;40.084;32.908;2023-04-20T02:20:24;88820.13;;;9.86;68.07
72585;BME280;60618;40.084;32.908;2023-04-20T02:22:51;88818.69;;;9.85;68.45
72585;BME280;60618;40.084;32.908;2023-04-20T02:25:19;88830.03;;;9.86;67.34
72585;BME280;60618;40.084;32.908;2023-04-20T02:27:46;88829.28;;;9.57;69.15
72585;BME280;60618;40.084;32.908;2023-04-20T02:30:13;88834.34;;;9.61;68.64
72585;BME280;60618;40.084;32.908;2023-04-20T02:32:40;88831.19;;;9.46;70.07
72585;BME280;60618;40.084;32.908;2023-04-20T02:35:07;88827.03;;;9.17;69.76
72585;BME280;60618;40.084;32.908;2023-04-20T02:37:34;88826.88;;;8.77;72.49
72585;BME280;60618;40.084;32.908;2023-04-20T02:40:03;88831.94;;;8.75;73.51
72585;BME280;60618;40.084;32.908;2023-04-20T02:42:30;88827.22;;;8.53;72.71
72585;BME280;60618;40.084;32.908;2023-04-20T02:44:57;88833.09;;;8.69;72.58
72585;BME280;60618;40.084;32.908;2023-04-20T02:47:24;88829.31;;;8.81;72.15
72585;BME280;60618;40.084;32.908;2023-04-20T02:49:51;88827.81;;;8.74;72.36
72585;BME280;60618;40.084;32.908;2023-04-20T02:52:17;88825.84;;;8.64;72.69
72585;BME280;60618;40.084;32.908;2023-04-20T02:54:44;88821.53;;;8.72;73.21
72585;BME280;60618;40.084;32.908;2023-04-20T02:57:11;88823.47;;;8.77;72.40
72585;BME280;60618;40.084;32.908;2023-04-20T02:59:38;88828.84;;;8.88;73.42
72585;BME280;60618;40.084;32.908;2023-04-20T03:02:05;88817.25;;;8.86;73.15
72585;BME280;60618;40.084;32.908;2023-04-20T03:04:32;88818.03;;;9.03;72.85
72585;BME280;60618;40.084;32.908;2023-04-20T03:06:59;88815.09;;;8.90;73.56
72585;BME280;60618;40.084;32.908;2023-04-20T03:09:26;88815.59;;;8.94;73.52
72585;BME280;60618;40.084;32.908;2023-04-20T03:11:53;88810.31;;;9.05;73.52
72585;BME280;60618;40.084;32.908;2023-04-20T03:14:20;88805.44;;;8.92;74.52
72585;BME280;60618;40.084;32.908;2023-04-20T03:16:47;88803.78;;;9.06;73.63
72585;BME280;60618;40.084;32.908;2023-04-20T03:19:14;88810.25;;;8.82;74.39
72585;BME280;60618;40.084;32.908;2023-04-20T03:21:43;88801.28;;;8.74;75.08
72585;BME280;60618;40.084;32.908;2023-04-20T03:24:10;88800.59;;;8.85;74.66
72585;BME280;60618;40.084;32.908;2023-04-20T03:26:37;88791.72;;;8.99;74.88
72585;BME280;60618;40.084;32.908;2023-04-20T03:29:04;88795.38;;;9.13;73.97
72585;BME280;60618;40.084;32.908;2023-04-20T03:31:30;88796.34;;;9.21;73.66
72585;BME280;60618;40.084;32.908;2023-04-20T03:33:57;88798.53;;;9.34;73.88
72585;BME280;60618;40.084;32.908;2023-04-20T03:36:24;88789.16;;;9.50;73.34
72585;BME280;60618;40.084;32.908;2023-04-20T03:38:51;88785.56;;;9.53;73.23
72585;BME280;60618;40.084;32.908;2023-04-20T03:41:18;88782.44;;;9.71;72.39
72585;BME280;60618;40.084;32.908;2023-04-20T03:43:45;88784.09;;;9.74;72.33
72585;BME280;60618;40.084;32.908;2023-04-20T03:46:12;88787.00;;;9.59;72.41
72585;BME280;60618;40.084;32.908;2023-04-20T03:48:39;88777.06;;;9.60;72.09
72585;BME280;60618;40.084;32.908;2023-04-20T03:51:05;88788.44;;;9.55;70.41
72585;BME280;60618;40.084;32.908;2023-04-20T03:53:33;88789.88;;;9.50;70.97
72585;BME280;60618;40.084;32.908;2023-04-20T03:56:02;88783.34;;;9.29;72.79
72585;BME280;60618;40.084;32.908;2023-04-20T03:58:29;88782.84;;;9.30;72.50
72585;BME280;60618;40.084;32.908;2023-04-20T04:01:03;88785.72;;;9.21;72.47
72585;BME280;60618;40.084;32.908;2023-04-20T04:03:29;88795.38;;;9.24;71.84
72585;BME280;60618;40.084;32.908;2023-04-20T04:05:57;88802.16;;;9.25;72.63
72585;BME280;60618;40.084;32.908;2023-04-20T04:08:24;88797.59;;;9.31;71.82
72585;BME280;60618;40.084;32.908;2023-04-20T04:10:50;88800.03;;;9.35;71.37
72585;BME280;60618;40.084;32.908;2023-04-20T04:13:17;88797.38;;;9.46;71.17
72585;BME280;60618;40.084;32.908;2023-04-20T04:15:44;88806.31;;;9.60;71.36
72585;BME280;60618;40.084;32.908;2023-04-20T04:18:11;88802.22;;;9.64;70.42
72585;BME280;60618;40.084;32.908;2023-04-20T04:20:38;88803.44;;;9.75;70.91
72585;BME280;60618;40.084;32.908;2023-04-20T04:23:05;88801.03;;;9.99;70.90
72585;BME280;60618;40.084;32.908;2023-04-20T04:25:32;88803.44;;;10.19;70.15
72585;BME280;60618;40.084;32.908;2023-04-20T04:27:58;88802.69;;;10.41;71.00
72585;BME280;60618;40.084;32.908;2023-04-20T04:30:25;88804.34;;;10.67;68.91
72585;BME280;60618;40.084;32.908;2023-04-20T04:32:52;88805.69;;;11.01;69.02
72585;BME280;60618;40.084;32.908;2023-04-20T04:35:19;88806.50;;;11.32;67.32
72585;BME280;60618;40.084;32.908;2023-04-20T04:37:46;88807.78;;;11.66;65.11
72585;BME280;60618;40.084;32.908;2023-04-20T04:40:13;88815.19;;;11.90;62.97
72585;BME280;60618;40.084;32.908;2023-04-20T04:42:40;88813.13;;;12.08;62.39
72585;BME280;60618;40.084;32.908;2023-04-20T04:45:07;88818.44;;;11.72;65.55
72585;BME280;60618;40.084;32.908;2023-04-20T04:47:34;88828.59;;;10.52;69.24
72585;BME280;60618;40.084;32.908;2023-04-20T04:50:03;88831.22;;;9.68;71.77
72585;BME280;60618;40.084;32.908;2023-04-20T04:52:31;88835.03;;;9.33;75.80
72585;BME280;60618;40.084;32.908;2023-04-20T04:54:58;88832.84;;;9.32;75.08
72585;BME280;60618;40.084;32.908;2023-04-20T04:57:25;88830.44;;;9.34;74.79
72585;BME280;60618;40.084;32.908;2023-04-20T04:59:53;88834.84;;;9.59;74.10
72585;BME280;60618;40.084;32.908;2023-04-20T05:02:19;88839.94;;;9.85;72.70
72585;BME280;60618;40.084;32.908;2023-04-20T05:04:46;88836.59;;;10.02;72.31
72585;BME280;60618;40.084;32.908;2023-04-20T05:07:14;88841.66;;;10.16;71.31
72585;BME280;60618;40.084;32.908;2023-04-20T05:09:40;88836.81;;;10.15;71.92
72585;BME280;60618;40.084;32.908;2023-04-20T05:12:07;88836.59;;;10.02;72.02
72585;BME280;60618;40.084;32.908;2023-04-20T05:14:34;88843.56;;;9.88;73.16
72585;BME280;60618;40.084;32.908;2023-04-20T05:17:01;88844.78;;;9.87;73.72
72585;BME280;60618;40.084;32.908;2023-04-20T05:19:28;88849.13;;;9.79;74.21
72585;BME280;60618;40.084;32.908;2023-04-20T05:21:55;88849.34;;;9.70;73.67
72585;BME280;60618;40.084;32.908;2023-04-20T05:24:22;88842.34;;;9.61;75.51
72585;BME280;60618;40.084;32.908;2023-04-20T05:26:49;88850.78;;;9.54;73.85
72585;BME280;60618;40.084;32.908;2023-04-20T05:29:16;88848.63;;;9.58;75.97
72585;BME280;60618;40.084;32.908;2023-04-20T05:31:43;88852.97;;;9.61;75.27
72585;BME280;60618;40.084;32.908;2023-04-20T05:34:10;88850.81;;;9.76;74.90
72585;BME280;60618;40.084;32.908;2023-04-20T05:36:38;88853.50;;;10.15;74.39
72585;BME280;60618;40.084;32.908;2023-04-20T05:39:05;88853.97;;;10.59;72.72
72585;BME280;60618;40.084;32.908;2023-04-20T05:41:32;88856.53;;;11.15;70.48
72585;BME280;60618;40.084;32.908;2023-04-20T05:43:59;88846.00;;;11.39;67.93
72585;BME280;60618;40.084;32.908;2023-04-20T05:46:28;88848.50;;;11.67;68.12
72585;BME280;60618;40.084;32.908;2023-04-20T05:48:55;88861.72;;;11.95;66.25
72585;BME280;60618;40.084;32.908;2023-04-20T05:51:22;88853.13;;;12.13;64.81
72585;BME280;60618;40.084;32.908;2023-04-20T05:53:49;88862.19;;;12.35;65.55
72585;BME280;60618;40.084;32.908;2023-04-20T05:56:16;88857.13;;;12.61;64.26
72585;BME280;60618;40.084;32.908;2023-04-20T05:58:43;88860.13;;;12.76;63.27
72585;BME280;60618;40.084;32.908;2023-04-20T06:01:10;88860.03;;;12.88;61.77
72585;BME280;60618;40.084;32.908;2023-04-20T06:03:37;88857.53;;;12.95;61.41
72585;BME280;60618;40.084;32.908;2023-04-20T06:06:04;88859.34;;;13.06;60.31
72585;BME280;60618;40.084;32.908;2023-04-20T06:08:30;88862.72;;;13.12;60.90
72585;BME280;60618;40.084;32.908;2023-04-20T06:10:57;88867.00;;;13.21;60.19
72585;BME280;60618;40.084;32.908;2023-04-20T06:13:24;88865.50;;;13.25;59.76
72585;BME280;60618;40.084;32.908;2023-04-20T06:15:51;88862.59;;;13.23;59.15
72585;BME280;60618;40.084;32.908;2023-04-20T06:18:19;88864.38;;;13.15;59.84
72585;BME280;60618;40.084;32.908;2023-04-20T06:20:45;88871.22;;;13.11;58.70
72585;BME280;60618;40.084;32.908;2023-04-20T06:23:12;88871.34;;;13.24;58.96
72585;BME280;60618;40.084;32.908;2023-04-20T06:25:39;88865.59;;;13.14;56.76
72585;BME280;60618;40.084;32.908;2023-04-20T06:28:06;88870.22;;;13.14;57.92
72585;BME280;60618;40.084;32.908;2023-04-20T06:30:33;88866.38;;;13.33;57.51
72585;BME280;60618;40.084;32.908;2023-04-20T06:33:01;88865.81;;;13.41;55.30
72585;BME280;60618;40.084;32.908;2023-04-20T06:35:28;88862.41;;;13.16;56.04
72585;BME280;60618;40.084;32.908;2023-04-20T06:37:55;88864.16;;;13.13;56.95
72585;BME280;60618;40.084;32.908;2023-04-20T06:40:25;88867.72;;;12.97;56.72
72585;BME280;60618;40.084;32.908;2023-04-20T06:42:52;88862.81;;;13.01;57.17
72585;BME280;60618;40.084;32.908;2023-04-20T06:45:19;88866.59;;;13.11;59.24
72585;BME280;60618;40.084;32.908;2023-04-20T06:47:46;88867.81;;;13.10;57.77
72585;BME280;60618;40.084;32.908;2023-04-20T06:50:13;88868.06;;;13.12;59.39
72585;BME280;60618;40.084;32.908;2023-04-20T06:52:40;88869.53;;;13.07;56.93
72585;BME280;60618;40.084;32.908;2023-04-20T06:55:08;88869.66;;;12.96;56.12
72585;BME280;60618;40.084;32.908;2023-04-20T06:57:35;88868.06;;;13.12;57.58
72585;BME280;60618;40.084;32.908;2023-04-20T07:00:01;88867.44;;;13.25;57.59
72585;BME280;60618;40.084;32.908;2023-04-20T07:02:28;88854.41;;;13.40;56.79
72585;BME280;60618;40.084;32.908;2023-04-20T07:05:01;88859.47;;;13.44;57.07
72585;BME280;60618;40.084;32.908;2023-04-20T07:07:28;88866.03;;;13.18;54.79
72585;BME280;60618;40.084;32.908;2023-04-20T07:09:55;88858.81;;;12.89;55.75
72585;BME280;60618;40.084;32.908;2023-04-20T07:12:22;88864.72;;;13.06;58.14
72585;BME280;60618;40.084;32.908;2023-04-20T07:14:48;88864.94;;;13.32;57.31
72585;BME280;60618;40.084;32.908;2023-04-20T07:17:15;88857.00;;;13.46;56.55
72585;BME280;60618;40.084;32.908;2023-04-20T07:19:42;88859.47;;;13.81;56.43
72585;BME280;60618;40.084;32.908;2023-04-20T07:22:12;88855.97;;;14.24;56.18
72585;BME280;60618;40.084;32.908;2023-04-20T07:24:39;88858.28;;;14.33;52.96
72585;BME280;60618;40.084;32.908;2023-04-20T07:27:05;88854.44;;;14.29;53.10
72585;BME280;60618;40.084;32.908;2023-04-20T07:29:32;88850.09;;;14.26;53.93
72585;BME280;60618;40.084;32.908;2023-04-20T07:31:59;88859.31;;;14.30;54.44
72585;BME280;60618;40.084;32.908;2023-04-20T07:34:26;88857.25;;;14.36;55.18
72585;BME280;60618;40.084;32.908;2023-04-20T07:36:53;88858.78;;;14.51;55.90
72585;BME280;60618;40.084;32.908;2023-04-20T07:39:20;88864.13;;;14.51;54.63
72585;BME280;60618;40.084;32.908;2023-04-20T07:41:47;88864.78;;;14.57;54.40
72585;BME280;60618;40.084;32.908;2023-04-20T07:44:17;88859.69;;;14.53;53.65
72585;BME280;60618;40.084;32.908;2023-04-20T07:46:44;88859.28;;;14.49;51.50
72585;BME280;60618;40.084;32.908;2023-04-20T07:49:11;88857.78;;;14.67;50.28
72585;BME280;60618;40.084;32.908;2023-04-20T07:51:38;88857.19;;;14.87;50.76
72585;BME280;60618;40.084;32.908;2023-04-20T07:54:05;88854.13;;;14.96;51.23
72585;BME280;60618;40.084;32.908;2023-04-20T07:56:32;88853.81;;;15.00;51.65
72585;BME280;60618;40.084;32.908;2023-04-20T07:58:58;88849.47;;;15.37;50.49
72585;BME280;60618;40.084;32.908;2023-04-20T08:01:25;88853.94;;;15.34;49.90
72585;BME280;60618;40.084;32.908;2023-04-20T08:03:52;88849.09;;;15.32;49.21
72585;BME280;60618;40.084;32.908;2023-04-20T08:06:20;88848.75;;;15.36;46.90
72585;BME280;60618;40.084;32.908;2023-04-20T08:08:47;88844.88;;;15.11;47.56
72585;BME280;60618;40.084;32.908;2023-04-20T08:11:17;88842.50;;;15.20;48.49
72585;BME280;60618;40.084;32.908;2023-04-20T08:13:44;88841.03;;;15.32;46.36
72585;BME280;60618;40.084;32.908;2023-04-20T08:16:13;88838.69;;;15.29;47.85
72585;BME280;60618;40.084;32.908;2023-04-20T08:18:40;88832.06;;;15.17;47.62
72585;BME280;60618;40.084;32.908;2023-04-20T08:21:08;88842.59;;;15.41;47.66
72585;BME280;60618;40.084;32.908;2023-04-20T08:23:35;88834.94;;;15.58;46.79
72585;BME280;60618;40.084;32.908;2023-04-20T08:26:03;88837.31;;;15.62;46.92
72585;BME280;60618;40.084;32.908;2023-04-20T08:28:29;88837.19;;;15.54;46.04
72585;BME280;60618;40.084;32.908;2023-04-20T08:30:59;88837.63;;;15.58;45.28
72585;BME280;60618;40.084;32.908;2023-04-20T08:33:26;88838.47;;;15.67;46.72
72585;BME280;60618;40.084;32.908;2023-04-20T08:35:53;88840.81;;;15.57;47.27
72585;BME280;60618;40.084;32.908;2023-04-20T08:38:20;88836.91;;;15.58;46.73
72585;BME280;60618;40.084;32.908;2023-04-20T08:41:11;88832.34;;;15.79;46.88
72585;BME280;60618;40.084;32.908;2023-04-20T08:44:02;88838.84;;;15.84;47.31
72585;BME280;60618;40.084;32.908;2023-04-20T08:49:19;88823.16;;;15.75;46.21
72585;BME280;60618;40.084;32.908;2023-04-20T08:51:47;88832.03;;;15.43;46.37
72585;BME280;60618;40.084;32.908;2023-04-20T08:54:14;88827.53;;;15.38;46.67
72585;BME280;60618;40.084;32.908;2023-04-20T08:56:44;88819.66;;;15.53;48.23
72585;BME280;60618;40.084;32.908;2023-04-20T08:59:11;88817.94;;;15.90;46.96
72585;BME280;60618;40.084;32.908;2023-04-20T09:01:43;88810.22;;;16.21;48.58
72585;BME280;60618;40.084;32.908;2023-04-20T09:04:25;88810.81;;;16.27;44.13
72585;BME280;60618;40.084;32.908;2023-04-20T09:06:54;88820.59;;;16.03;44.44
72585;BME280;60618;40.084;32.908;2023-04-20T09:09:23;88822.13;;;15.78;45.05
72585;BME280;60618;40.084;32.908;2023-04-20T09:12:00;88821.66;;;16.00;45.86
72585;BME280;60618;40.084;32.908;2023-04-20T09:14:27;88818.31;;;16.07;44.69
72585;BME280;60618;40.084;32.908;2023-04-20T09:16:55;88819.44;;;16.12;44.44
72585;BME280;60618;40.084;32.908;2023-04-20T09:19:24;88824.28;;;15.79;45.12
72585;BME280;60618;40.084;32.908;2023-04-20T09:21:53;88814.91;;;15.73;45.81
72585;BME280;60618;40.084;32.908;2023-04-20T09:24:21;88809.75;;;15.61;46.98
72585;BME280;60618;40.084;32.908;2023-04-20T09:26:49;88815.34;;;15.37;44.71
72585;BME280;60618;40.084;32.908;2023-04-20T09:29:23;88815.84;;;15.36;45.86
72585;BME280;60618;40.084;32.908;2023-04-20T09:31:50;88812.78;;;15.92;46.26
72585;BME280;60618;40.084;32.908;2023-04-20T09:34:18;88813.69;;;16.29;48.29
72585;BME280;60618;40.084;32.908;2023-04-20T09:36:51;88815.84;;;16.51;46.04
72585;BME280;60618;40.084;32.908;2023-04-20T09:39:20;88813.47;;;16.82;44.67
72585;BME280;60618;40.084;32.908;2023-04-20T09:41:49;88810.53;;;17.00;42.39
72585;BME280;60618;40.084;32.908;2023-04-20T09:44:17;88807.03;;;16.85;43.61
72585;BME280;60618;40.084;32.908;2023-04-20T09:46:45;88822.19;;;16.74;43.21
72585;BME280;60618;40.084;32.908;2023-04-20T09:49:12;88812.72;;;16.60;44.83
72585;BME280;60618;40.084;32.908;2023-04-20T09:51:43;88812.66;;;16.32;44.11
72585;BME280;60618;40.084;32.908;2023-04-20T09:54:11;88819.88;;;16.03;45.37
72585;BME280;60618;40.084;32.908;2023-04-20T09:56:38;88819.59;;;15.93;44.95
72585;BME280;60618;40.084;32.908;2023-04-20T09:59:05;88827.41;;;15.70;45.60
72585;BME280;60618;40.084;32.908;2023-04-20T10:01:33;88826.06;;;15.50;47.07
72585;BME280;60618;40.084;32.908;2023-04-20T10:04:04;88827.31;;;15.36;48.07
72585;BME280;60618;40.084;32.908;2023-04-20T10:06:33;88822.97;;;15.33;49.32
72585;BME280;60618;40.084;32.908;2023-04-20T10:09:03;88825.84;;;15.35;50.43
72585;BME280;60618;40.084;32.908;2023-04-20T10:14:24;88823.19;;;15.35;50.58
72585;BME280;60618;40.084;32.908;2023-04-20T10:17:00;88820.50;;;15.09;49.92
72585;BME280;60618;40.084;32.908;2023-04-20T10:19:43;88817.41;;;15.18;50.08
72585;BME280;60618;40.084;32.908;2023-04-20T10:22:12;88820.69;;;14.97;48.19
72585;BME280;60618;40.084;32.908;2023-04-20T10:24:40;88818.13;;;14.92;47.91
72585;BME280;60618;40.084;32.908;2023-04-20T10:27:20;88810.88;;;15.53;48.43
72585;BME280;60618;40.084;32.908;2023-04-20T10:29:47;88807.06;;;14.69;47.44
72585;BME280;60618;40.084;32.908;2023-04-20T10:32:25;88803.16;;;14.96;47.44
72585;BME280;60618;40.084;32.908;2023-04-20T10:35:03;88809.84;;;14.31;48.92
72585;BME280;60618;40.084;32.908;2023-04-20T10:37:31;88801.66;;;14.56;50.67
72585;BME280;60618;40.084;32.908;2023-04-20T10:39:58;88801.09;;;14.89;49.12
72585;BME280;60618;40.084;32.908;2023-04-20T10:42:25;88794.94;;;15.21;47.56
72585;BME280;60618;40.084;32.908;2023-04-20T10:44:53;88795.09;;;15.63;45.86
72585;BME280;60618;40.084;32.908;2023-04-20T10:47:27;88798.94;;;15.88;46.05
72585;BME280;60618;40.084;32.908;2023-04-20T10:50:07;88797.66;;;16.36;44.80
72585;BME280;60618;40.084;32.908;2023-04-20T10:52:36;88796.72;;;16.76;43.14
72585;BME280;60618;40.084;32.908;2023-04-20T10:55:04;88792.50;;;16.88;42.23
72585;BME280;60618;40.084;32.908;2023-04-20T10:57:32;88795.66;;;16.79;42.21
72585;BME280;60618;40.084;32.908;2023-04-20T10:59:59;88797.97;;;16.74;42.15
72585;BME280;60618;40.084;32.908;2023-04-20T11:02:26;88799.03;;;16.71;42.69
72585;BME280;60618;40.084;32.908;2023-04-20T11:04:53;88800.50;;;16.80;42.48
72585;BME280;60618;40.084;32.908;2023-04-20T11:07:20;88808.34;;;16.70;42.33
72585;BME280;60618;40.084;32.908;2023-04-20T11:09:53;88809.50;;;16.41;42.16
72585;BME280;60618;40.084;32.908;2023-04-20T11:12:20;88803.78;;;16.24;42.09
72585;BME280;60618;40.084;32.908;2023-04-20T11:14:52;88818.03;;;15.98;42.56
72585;BME280;60618;40.084;32.908;2023-04-20T11:17:29;88817.81;;;15.48;42.52
72585;BME280;60618;40.084;32.908;2023-04-20T11:20:10;88815.66;;;15.20;43.54
72585;BME280;60618;40.084;32.908;2023-04-20T11:22:39;88830.19;;;14.98;44.21
72585;BME280;60618;40.084;32.908;2023-04-20T11:25:08;88825.34;;;14.84;44.57
72585;BME280;60618;40.084;32.908;2023-04-20T11:27:36;88819.22;;;14.70;45.54
72585;BME280;60618;40.084;32.908;2023-04-20T11:30:04;88819.63;;;14.61;47.27
72585;BME280;60618;40.084;32.908;2023-04-20T11:32:33;88815.63;;;14.67;48.07
72585;BME280;60618;40.084;32.908;2023-04-20T11:35:04;88829.44;;;14.71;48.67
72585;BME280;60618;40.084;32.908;2023-04-20T11:37:53;88825.31;;;14.70;48.25
72585;BME280;60618;40.084;32.908;2023-04-20T11:40:20;88819.47;;;14.85;47.32
72585;BME280;60618;40.084;32.908;2023-04-20T11:42:47;88816.25;;;15.00;47.20
72585;BME280;60618;40.084;32.908;2023-04-20T11:45:14;88819.88;;;15.16;47.01
72585;BME280;60618;40.084;32.908;2023-04-20T11:47:41;88820.31;;;15.20;46.41
72585;BME280;60618;40.084;32.908;2023-04-20T11:50:08;88824.25;;;15.19;45.90
72585;BME280;60618;40.084;32.908;2023-04-20T11:52:35;88822.69;;;15.10;45.22
72585;BME280;60618;40.084;32.908;2023-04-20T11:55:03;88826.78;;;15.24;45.77
72585;BME280;60618;40.084;32.908;2023-04-20T11:57:30;88814.69;;;15.57;45.98
72585;BME280;60618;40.084;32.908;2023-04-20T11:59:57;88808.91;;;15.53;45.17
72585;BME280;60618;40.084;32.908;2023-04-20T12:02:24;88801.09;;;15.55;42.87
72585;BME280;60618;40.084;32.908;2023-04-20T12:04:51;88804.78;;;15.52;44.74
72585;BME280;60618;40.084;32.908;2023-04-20T12:07:18;88809.63;;;15.54;43.27
72585;BME280;60618;40.084;32.908;2023-04-20T12:09:45;88803.47;;;15.46;44.36
72585;BME280;60618;40.084;32.908;2023-04-20T12:12:12;88797.78;;;15.49;43.61
72585;BME280;60618;40.084;32.908;2023-04-20T12:14:39;88808.31;;;15.34;44.39
72585;BME280;60618;40.084;32.908;2023-04-20T12:17:06;88804.38;;;15.48;45.00
72585;BME280;60618;40.084;32.908;2023-04-20T12:19:33;88808.31;;;15.34;44.16
72585;BME280;60618;40.084;32.908;2023-04-20T12:22:00;88806.34;;;15.34;44.27
72585;BME280;60618;40.084;32.908;2023-04-20T12:24:27;88801.13;;;15.29;44.19
72585;BME280;60618;40.084;32.908;2023-04-20T12:26:54;88797.50;;;15.13;44.46
72585;BME280;60618;40.084;32.908;2023-04-20T12:29:21;88790.19;;;14.87;46.23
72585;BME280;60618;40.084;32.908;2023-04-20T12:31:48;88796.56;;;14.97;44.58
72585;BME280;60618;40.084;32.908;2023-04-20T12:34:15;88789.38;;;14.92;44.90
72585;BME280;60618;40.084;32.908;2023-04-20T12:36:42;88778.41;;;14.64;44.58
72585;BME280;60618;40.084;32.908;2023-04-20T12:39:09;88779.59;;;14.04;45.58
72585;BME280;60618;40.084;32.908;2023-04-20T12:41:35;88787.00;;;13.79;46.59
72585;BME280;60618;40.084;32.908;2023-04-20T12:44:02;88779.38;;;13.83;46.69
72585;BME280;60618;40.084;32.908;2023-04-20T12:46:33;88785.22;;;14.33;47.49
72585;BME280;60618;40.084;32.908;2023-04-20T12:49:00;88778.41;;;14.64;45.16
72585;BME280;60618;40.084;32.908;2023-04-20T12:51:27;88778.13;;;14.94;44.30
72585;BME280;60618;40.084;32.908;2023-04-20T12:53:54;88773.75;;;15.30;44.91
72585;BME280;60618;40.084;32.908;2023-04-20T12:56:21;88767.63;;;15.56;43.16
72585;BME280;60618;40.084;32.908;2023-04-20T12:58:48;88758.84;;;15.56;42.95
72585;BME280;60618;40.084;32.908;2023-04-20T13:01:15;88772.09;;;15.41;42.31